Time;durP1;ratioP1;P1;durP2;ratioP2;P2;SDS_P1;SDS_P2;PMS_P1;PMS_P2;Temp;Humidity;BMP_temperature;BMP_pressure;BME280_temperature;BME280_humidity;BME280_pressure;Samples;Min_cycle;Max_cycle;Signal;HPM_P1;HPM_P2
2022/07/01 00:01:34;;;;;;;1.70;0.95;;;16.00;99.90;;;;;;5095231;28;20078;-83
2022/07/01 00:04:00;;;;;;;1.83;0.68;;;16.00;99.90;;;;;;5077776;28;20071;-78
2022/07/01 00:06:25;;;;;;;1.80;0.65;;;16.00;99.90;;;;;;5077939;28;20073;-78
2022/07/01 00:08:51;;;;;;;2.88;1.00;;;16.00;99.90;;;;;;5094341;28;20047;-78
2022/07/01 00:11:17;;;;;;;1.42;0.60;;;15.90;99.90;;;;;;5078144;28;20051;-78
2022/07/01 00:13:42;;;;;;;1.95;0.77;;;15.90;99.90;;;;;;5098187;28;20065;-78
2022/07/01 00:16:08;;;;;;;0.50;0.50;;;15.90;99.90;;;;;;5080954;28;20063;-78
2022/07/01 00:18:34;;;;;;;1.30;0.60;;;15.90;99.90;;;;;;5080836;28;20035;-78
2022/07/01 00:21:01;;;;;;;1.63;0.70;;;15.90;99.90;;;;;;5064205;28;20047;-78
2022/07/01 00:23:27;;;;;;;1.88;0.70;;;15.90;99.90;;;;;;5064270;28;20476;-78
2022/07/01 00:25:53;;;;;;;2.33;0.95;;;15.90;99.90;;;;;;5097752;28;20050;-78
2022/07/01 00:28:19;;;;;;;1.77;0.80;;;15.90;99.90;;;;;;5080814;28;20040;-79
2022/07/01 00:30:45;;;;;;;2.38;0.90;;;15.90;99.90;;;;;;5080714;28;20040;-78
2022/07/01 00:33:11;;;;;;;1.38;0.80;;;15.90;99.90;;;;;;5080439;28;20042;-78
2022/07/01 00:35:37;;;;;;;1.17;0.90;;;15.90;99.90;;;;;;5063805;28;20040;-78
2022/07/01 00:38:03;;;;;;;1.08;0.70;;;15.90;99.90;;;;;;5080540;28;20062;-78
2022/07/01 00:40:29;;;;;;;2.17;0.75;;;15.90;99.90;;;;;;5080509;28;20035;-78
2022/07/01 00:42:55;;;;;;;1.25;0.85;;;15.90;99.90;;;;;;5080591;28;20396;-83
2022/07/01 00:45:21;;;;;;;2.75;1.38;;;15.90;99.90;;;;;;5081509;28;20044;-83
2022/07/01 00:47:47;;;;;;;1.45;1.10;;;15.90;99.90;;;;;;5098155;28;20445;-84
2022/07/01 00:50:15;;;;;;;1.42;1.00;;;15.90;99.90;;;;;;5080939;28;20036;-83
2022/07/01 00:52:42;;;;;;;1.73;1.08;;;15.90;99.90;;;;;;5097820;28;20086;-84
2022/07/01 00:55:12;;;;;;;3.35;1.55;;;15.90;99.90;;;;;;5080916;28;20097;-83
2022/07/01 00:57:39;;;;;;;3.25;1.73;;;16.00;99.90;;;;;;5098009;28;20479;-83
2022/07/01 01:00:11;;;;;;;2.83;1.98;;;16.00;99.90;;;;;;5098444;28;20398;-83
2022/07/01 01:02:37;;;;;;;3.45;2.90;;;15.90;99.90;;;;;;5080531;28;20035;-83
2022/07/01 01:05:08;;;;;;;7.47;5.85;;;16.00;99.90;;;;;;5098270;28;20043;-84
2022/07/01 01:07:34;;;;;;;12.38;7.82;;;16.00;99.90;;;;;;5081567;28;20039;-83
2022/07/01 01:10:01;;;;;;;10.57;9.50;;;16.00;99.90;;;;;;5099355;28;20042;-83
2022/07/01 01:12:28;;;;;;;11.25;9.70;;;16.00;99.90;;;;;;5099352;28;20368;-83
2022/07/01 01:14:57;;;;;;;13.07;10.32;;;16.00;99.90;;;;;;5080879;28;20303;-83
2022/07/01 01:17:23;;;;;;;12.27;10.73;;;16.00;99.90;;;;;;5098002;28;20153;-83
2022/07/01 01:19:51;;;;;;;14.52;10.93;;;16.00;99.90;;;;;;5097993;28;20031;-83
2022/07/01 01:22:18;;;;;;;11.57;10.38;;;15.90;99.90;;;;;;5097458;28;20114;-83
2022/07/01 01:24:45;;;;;;;13.38;11.45;;;15.90;99.90;;;;;;5080338;28;20032;-83
2022/07/01 01:27:12;;;;;;;11.45;10.05;;;15.90;99.90;;;;;;5097546;28;20108;-83
2022/07/01 01:29:38;;;;;;;12.70;10.57;;;15.90;99.90;;;;;;5081046;28;20437;-83
2022/07/01 01:32:06;;;;;;;12.95;11.10;;;15.90;99.90;;;;;;5097446;28;20058;-83
2022/07/01 01:34:36;;;;;;;13.27;9.00;;;15.90;99.90;;;;;;5097041;28;20056;-83
2022/07/01 01:37:03;;;;;;;11.00;9.07;;;15.90;99.90;;;;;;5080690;28;20372;-83
2022/07/01 01:39:29;;;;;;;12.25;8.93;;;15.80;99.90;;;;;;5080217;28;20039;-83
2022/07/01 01:41:55;;;;;;;12.48;9.15;;;15.80;99.90;;;;;;5080477;28;20124;-83
2022/07/01 01:44:21;;;;;;;12.05;9.20;;;15.70;99.90;;;;;;5097777;28;20066;-83
2022/07/01 01:46:46;;;;;;;10.77;8.77;;;15.70;99.90;;;;;;5097107;28;20104;-78
2022/07/01 01:49:12;;;;;;;10.68;8.85;;;15.70;99.90;;;;;;5080146;28;20079;-78
2022/07/01 01:51:38;;;;;;;10.88;8.38;;;15.60;99.90;;;;;;5096711;28;20392;-78
2022/07/01 01:54:04;;;;;;;11.63;8.23;;;15.60;99.90;;;;;;5096374;28;20480;-78
2022/07/01 01:56:31;;;;;;;8.70;7.40;;;15.60;99.90;;;;;;5096592;28;20042;-78
2022/07/01 01:58:57;;;;;;;10.00;7.25;;;15.60;99.90;;;;;;5096202;28;20050;-78
2022/07/01 02:01:23;;;;;;;7.82;6.32;;;15.50;99.90;;;;;;5079552;28;20491;-83
2022/07/01 02:03:50;;;;;;;8.27;6.75;;;15.50;99.90;;;;;;5079816;28;20050;-83
2022/07/01 02:06:17;;;;;;;8.95;6.53;;;15.50;99.90;;;;;;5097178;28;20504;-83
2022/07/01 02:08:43;;;;;;;7.70;6.45;;;15.50;99.90;;;;;;5063147;28;20449;-83
2022/07/01 02:11:10;;;;;;;7.07;6.13;;;15.40;99.90;;;;;;5096425;28;20039;-83
2022/07/01 02:13:36;;;;;;;8.68;6.50;;;15.30;99.90;;;;;;5062859;28;20070;-83
2022/07/01 02:16:02;;;;;;;8.63;6.03;;;15.40;99.90;;;;;;5080110;28;20031;-83
2022/07/01 02:18:28;;;;;;;7.00;5.85;;;15.30;99.90;;;;;;5096444;28;20043;-83
2022/07/01 02:20:54;;;;;;;9.77;6.80;;;15.30;99.90;;;;;;5080046;28;20462;-83
2022/07/01 02:23:20;;;;;;;7.68;6.88;;;15.30;99.90;;;;;;5079600;28;20078;-83
2022/07/01 02:25:46;;;;;;;8.38;6.43;;;15.20;99.90;;;;;;5096380;28;20047;-83
2022/07/01 02:28:12;;;;;;;8.15;6.80;;;15.20;99.90;;;;;;5046185;28;20039;-83
2022/07/01 02:30:38;;;;;;;8.93;6.95;;;15.20;99.90;;;;;;5096325;28;20593;-83
2022/07/01 02:33:07;;;;;;;7.57;6.47;;;15.20;99.90;;;;;;5079282;28;20127;-82
2022/07/01 02:35:34;;;;;;;8.63;6.95;;;15.30;99.90;;;;;;5096218;28;20091;-83
2022/07/01 02:38:00;;;;;;;11.90;7.32;;;15.20;99.90;;;;;;5063143;28;20035;-83
2022/07/01 02:40:26;;;;;;;11.27;7.10;;;15.20;99.90;;;;;;5096226;28;20036;-82
2022/07/01 02:42:51;;;;;;;8.57;7.57;;;15.20;99.90;;;;;;5063649;28;20043;-82
2022/07/01 02:45:17;;;;;;;9.68;7.60;;;15.20;99.90;;;;;;5096174;28;20400;-83
2022/07/01 02:47:44;;;;;;;9.77;7.82;;;15.20;99.90;;;;;;5080030;28;20031;-83
2022/07/01 02:50:12;;;;;;;10.05;8.60;;;15.10;99.90;;;;;;5096719;28;20040;-83
2022/07/01 02:52:40;;;;;;;12.52;9.52;;;15.10;99.90;;;;;;5096098;28;20263;-82
2022/07/01 02:55:08;;;;;;;12.82;10.25;;;15.10;99.90;;;;;;5095452;28;20093;-83
2022/07/01 02:57:34;;;;;;;13.50;10.38;;;15.10;99.90;;;;;;5079316;28;20036;-82
2022/07/01 03:00:01;;;;;;;14.65;11.30;;;15.10;99.90;;;;;;5096772;28;20032;-82
2022/07/01 03:02:27;;;;;;;14.48;12.23;;;15.10;99.90;;;;;;5079674;28;20556;-83
2022/07/01 03:04:53;;;;;;;14.45;12.23;;;15.10;99.90;;;;;;5096088;28;20036;-83
2022/07/01 03:07:20;;;;;;;15.52;11.80;;;15.10;99.90;;;;;;5064092;28;20052;-82
2022/07/01 03:09:46;;;;;;;18.35;13.93;;;15.00;99.90;;;;;;5080509;28;20148;-83
2022/07/01 03:12:25;;;;;;;17.73;15.45;;;15.00;99.90;;;;;;5097529;28;20512;-83
2022/07/01 03:14:52;;;;;;;18.00;14.85;;;15.00;99.90;;;;;;5079539;28;20441;-83
2022/07/01 03:17:18;;;;;;;20.35;15.65;;;14.90;99.90;;;;;;5096307;28;20043;-83
2022/07/01 03:19:44;;;;;;;20.33;16.67;;;14.90;99.90;;;;;;5079586;28;20043;-82
2022/07/01 03:22:10;;;;;;;19.08;16.35;;;14.90;99.90;;;;;;5062485;28;20275;-83
2022/07/01 03:24:36;;;;;;;18.75;16.63;;;14.90;99.90;;;;;;5063013;28;20502;-83
2022/07/01 03:27:02;;;;;;;22.70;17.63;;;14.80;99.90;;;;;;5079360;28;20525;-83
2022/07/01 03:29:27;;;;;;;21.02;18.15;;;14.80;99.90;;;;;;5077834;28;20385;-83
2022/07/01 03:31:53;;;;;;;22.42;18.20;;;14.80;99.90;;;;;;5062128;28;20040;-83
2022/07/01 03:34:19;;;;;;;22.65;18.98;;;14.80;99.90;;;;;;5079217;28;20066;-83
2022/07/01 03:36:44;;;;;;;22.90;18.98;;;14.80;99.90;;;;;;5079293;28;20036;-83
2022/07/01 03:39:10;;;;;;;22.17;18.33;;;14.80;99.90;;;;;;5062856;28;20042;-83
2022/07/01 03:41:36;;;;;;;22.05;18.65;;;14.70;99.90;;;;;;5079278;28;20468;-83
2022/07/01 03:44:02;;;;;;;22.77;19.30;;;14.70;99.90;;;;;;5096214;28;20103;-83
2022/07/01 03:46:31;;;;;;;20.02;17.67;;;14.70;99.90;;;;;;5063340;28;20039;-83
2022/07/01 03:48:57;;;;;;;23.08;19.10;;;14.70;99.90;;;;;;5100393;28;20051;-83
2022/07/01 03:51:23;;;;;;;26.63;19.63;;;14.80;99.90;;;;;;5051484;28;20043;-83
2022/07/01 03:56:32;;;;;;;22.65;18.15;;;14.80;99.90;;;;;;5101061;28;20050;-83
2022/07/01 03:58:58;;;;;;;23.40;19.17;;;14.80;99.90;;;;;;5084592;28;20043;-83
2022/07/01 04:01:24;;;;;;;23.77;19.42;;;14.80;99.90;;;;;;5101108;28;20403;-83
2022/07/01 04:03:50;;;;;;;22.05;19.20;;;14.80;99.90;;;;;;5083503;28;20112;-83
2022/07/01 04:06:16;;;;;;;24.25;18.88;;;14.80;99.90;;;;;;5050128;28;20063;-83
2022/07/01 04:08:41;;;;;;;25.33;21.38;;;14.80;99.90;;;;;;5083849;28;20043;-83
2022/07/01 04:11:08;;;;;;;24.00;18.55;;;14.90;99.90;;;;;;5083884;28;20365;-83
2022/07/01 04:13:38;;;;;;;24.15;19.67;;;14.80;99.90;;;;;;5100305;28;20047;-83
2022/07/01 04:16:04;;;;;;;26.35;20.83;;;14.80;99.90;;;;;;5083051;28;20057;-83
2022/07/01 04:18:30;;;;;;;27.35;21.92;;;14.80;99.90;;;;;;5100251;28;20064;-83
2022/07/01 04:23:41;;;;;;;26.67;21.63;;;14.80;99.90;;;;;;5099220;28;20050;-83
2022/07/01 04:26:07;;;;;;;27.38;22.02;;;14.80;99.90;;;;;;5082813;28;20047;-78
2022/07/01 04:28:32;;;;;;;26.70;22.13;;;14.80;99.90;;;;;;5082157;28;20480;-78
2022/07/01 04:30:59;;;;;;;28.13;20.58;;;14.80;99.90;;;;;;5083122;28;20042;-78
2022/07/01 04:33:25;;;;;;;25.92;20.90;;;14.80;99.90;;;;;;5049487;28;20472;-78
2022/07/01 04:35:50;;;;;;;27.42;22.05;;;14.80;99.90;;;;;;5099797;28;20051;-78
2022/07/01 04:38:16;;;;;;;23.48;19.55;;;14.80;99.90;;;;;;5083116;28;20036;-78
2022/07/01 04:41:58;;;;;;;24.60;20.20;;;14.80;99.90;;;;;;5048779;28;20031;-83
2022/07/01 04:43:28;;;;;;;23.10;19.27;;;14.80;99.90;;;;;;5098320;28;20050;-83
2022/07/01 04:45:54;;;;;;;26.08;20.90;;;14.80;99.90;;;;;;5082737;28;20281;-83
2022/07/01 04:48:20;;;;;;;24.60;20.00;;;14.80;99.90;;;;;;5099710;28;20075;-83
2022/07/01 04:50:47;;;;;;;24.05;20.17;;;14.80;99.90;;;;;;5066637;28;20069;-83
2022/07/01 04:53:15;;;;;;;26.25;21.00;;;14.80;99.90;;;;;;5083065;28;20069;-84
2022/07/01 04:55:41;;;;;;;25.33;19.90;;;14.80;99.90;;;;;;5065827;28;20044;-83
2022/07/01 04:58:07;;;;;;;26.85;21.17;;;14.80;99.90;;;;;;5098317;28;20039;-83
2022/07/01 05:00:32;;;;;;;25.23;19.98;;;14.80;99.90;;;;;;5081717;28;20294;-83
2022/07/01 05:02:58;;;;;;;24.02;20.75;;;14.80;99.90;;;;;;5083481;28;20122;-83
2022/07/01 05:05:24;;;;;;;25.42;20.25;;;14.80;99.90;;;;;;5099442;28;20039;-84
2022/07/01 05:07:50;;;;;;;23.45;20.23;;;14.80;99.90;;;;;;5082543;28;20043;-83
2022/07/01 05:10:15;;;;;;;24.20;19.75;;;14.80;99.90;;;;;;5065575;28;20054;-83
2022/07/01 05:12:41;;;;;;;24.35;20.42;;;14.80;99.90;;;;;;5099418;28;20100;-83
2022/07/01 05:15:08;;;;;;;28.95;21.23;;;14.80;99.90;;;;;;5081454;28;20115;-78
2022/07/01 05:23:03;;;;;;;24.13;18.63;;;14.80;99.90;;;;;;5098279;28;20469;-78
2022/07/01 05:25:29;;;;;;;23.48;20.15;;;14.80;99.90;;;;;;5064566;28;20153;-78
2022/07/01 05:27:54;;;;;;;25.58;20.80;;;14.80;99.90;;;;;;5081142;28;20078;-83
2022/07/01 05:30:21;;;;;;;23.60;21.05;;;14.80;99.90;;;;;;5089385;28;20487;-82
2022/07/01 05:32:47;;;;;;;24.45;20.95;;;14.80;99.90;;;;;;5100742;28;20161;-83
2022/07/01 05:35:14;;;;;;;28.63;20.85;;;14.80;99.90;;;;;;5065036;28;20130;-83
2022/07/01 05:37:40;;;;;;;24.13;21.55;;;14.80;99.90;;;;;;5097564;28;20046;-84
2022/07/01 05:40:07;;;;;;;23.85;20.60;;;14.80;99.90;;;;;;5097700;28;20035;-83
2022/07/01 05:42:33;;;;;;;24.08;20.27;;;14.80;99.90;;;;;;5064339;28;20036;-83
2022/07/01 05:44:59;;;;;;;23.90;19.08;;;14.80;99.90;;;;;;5080591;28;20187;-83
2022/07/01 05:47:24;;;;;;;24.52;19.75;;;14.80;99.90;;;;;;5075064;28;20302;-82
2022/07/01 05:49:50;;;;;;;24.55;20.15;;;14.80;99.90;;;;;;5121611;28;20027;-83
2022/07/01 05:52:16;;;;;;;24.67;20.23;;;14.80;99.90;;;;;;5102756;28;20028;-83
2022/07/01 05:54:42;;;;;;;23.08;18.50;;;14.80;99.90;;;;;;5104030;28;20040;-86
2022/07/01 05:57:08;;;;;;;22.20;19.25;;;14.80;99.90;;;;;;5101850;28;20526;-83
2022/07/01 05:59:33;;;;;;;21.02;18.17;;;14.80;99.90;;;;;;5064305;28;20040;-84
2022/07/01 06:01:59;;;;;;;23.30;19.08;;;14.80;99.90;;;;;;5063936;28;20047;-83
2022/07/01 06:04:25;;;;;;;25.33;18.83;;;14.80;99.90;;;;;;5080696;28;20084;-83
2022/07/01 06:06:50;;;;;;;23.13;18.55;;;14.70;99.90;;;;;;5064276;28;20039;-83
2022/07/01 06:09:16;;;;;;;24.63;18.60;;;14.70;99.90;;;;;;5096236;28;20062;-83
2022/07/01 06:11:42;;;;;;;21.55;17.95;;;14.80;99.90;;;;;;5096694;28;20036;-83
2022/07/01 06:14:07;;;;;;;24.13;19.70;;;14.80;99.90;;;;;;5097290;28;20032;-83
2022/07/01 06:16:33;;;;;;;22.45;19.55;;;14.80;99.90;;;;;;5080486;28;20479;-83
2022/07/01 06:18:59;;;;;;;26.10;21.15;;;14.80;99.90;;;;;;5097743;28;20042;-83
2022/07/01 06:21:25;;;;;;;25.00;21.02;;;14.80;99.90;;;;;;5047182;28;20096;-83
2022/07/01 06:23:51;;;;;;;24.42;21.10;;;14.80;99.90;;;;;;5099683;28;20399;-83
2022/07/01 06:26:16;;;;;;;25.02;20.42;;;14.80;99.90;;;;;;5047864;28;20055;-84
2022/07/01 06:28:42;;;;;;;23.27;19.40;;;14.80;99.90;;;;;;5081845;28;20061;-84
2022/07/01 06:31:09;;;;;;;24.10;19.77;;;14.80;99.90;;;;;;5097301;28;20119;-83
2022/07/01 06:33:35;;;;;;;26.48;20.52;;;14.80;99.90;;;;;;5080385;28;20403;-84
2022/07/01 06:36:00;;;;;;;25.95;19.15;;;14.80;99.90;;;;;;5080113;28;20044;-84
2022/07/01 06:38:26;;;;;;;24.95;20.50;;;14.80;99.90;;;;;;5080212;28;20050;-84
2022/07/01 06:43:36;;;;;;;24.25;20.48;;;14.90;99.90;;;;;;5082428;28;20407;-84
2022/07/01 06:46:02;;;;;;;26.75;21.60;;;15.00;99.90;;;;;;5062879;28;20039;-83
2022/07/01 06:48:28;;;;;;;22.65;19.90;;;15.00;99.90;;;;;;5097053;28;20202;-83
2022/07/01 06:50:54;;;;;;;26.55;20.73;;;15.10;99.90;;;;;;5079646;28;20051;-84
2022/07/01 06:53:20;;;;;;;27.08;20.17;;;15.10;99.90;;;;;;5062890;28;20096;-83
2022/07/01 06:55:45;;;;;;;24.98;20.35;;;15.20;99.90;;;;;;5078960;28;20503;-84
2022/07/01 06:58:11;;;;;;;24.55;20.45;;;15.20;99.90;;;;;;5079911;28;20042;-83
2022/07/01 07:00:37;;;;;;;24.30;20.23;;;15.30;99.90;;;;;;5063523;28;20372;-84
2022/07/01 07:03:03;;;;;;;23.20;19.55;;;15.20;99.90;;;;;;5096960;28;20039;-84
2022/07/01 07:05:32;;;;;;;23.60;20.65;;;15.30;99.90;;;;;;5096245;28;20049;-84
2022/07/01 07:07:58;;;;;;;25.50;19.65;;;15.30;99.90;;;;;;5046987;28;20050;-84
2022/07/01 07:10:24;;;;;;;24.90;19.17;;;15.30;99.90;;;;;;5079637;28;20036;-83
2022/07/01 07:12:49;;;;;;;22.52;18.70;;;15.40;99.90;;;;;;5063734;28;20127;-84
2022/07/01 07:15:16;;;;;;;25.35;19.33;;;15.40;99.90;;;;;;5080083;28;20036;-84
2022/07/01 07:17:42;;;;;;;24.90;19.20;;;15.50;99.90;;;;;;5080102;28;20109;-83
2022/07/01 07:20:08;;;;;;;21.27;18.52;;;15.50;99.90;;;;;;5079392;28;20078;-84
2022/07/01 07:22:34;;;;;;;26.13;18.58;;;15.50;99.90;;;;;;5082463;28;20491;-84
2022/07/01 07:24:59;;;;;;;23.92;20.38;;;15.50;99.90;;;;;;5083684;28;20104;-84
2022/07/01 07:27:25;;;;;;;22.92;19.70;;;15.60;99.90;;;;;;5083220;28;20142;-84
2022/07/01 07:29:51;;;;;;;23.30;18.63;;;15.60;99.90;;;;;;5082912;28;20047;-84
2022/07/01 07:32:18;;;;;;;25.00;19.92;;;15.60;99.90;;;;;;5100234;28;20070;-84
2022/07/01 07:34:43;;;;;;;21.17;18.55;;;15.70;99.90;;;;;;5066136;28;20047;-84
2022/07/01 07:37:09;;;;;;;22.52;18.55;;;15.80;99.90;;;;;;5083769;28;20039;-84
2022/07/01 07:39:35;;;;;;;23.15;18.60;;;16.00;99.90;;;;;;5066861;28;20057;-84
2022/07/01 07:42:01;;;;;;;21.50;18.77;;;16.10;99.90;;;;;;5100086;28;20487;-84
2022/07/01 07:44:27;;;;;;;26.45;18.70;;;16.30;99.90;;;;;;5100189;28;20122;-84
2022/07/01 07:46:53;;;;;;;21.38;18.63;;;16.60;99.90;;;;;;5082926;28;20035;-84
2022/07/01 07:49:18;;;;;;;26.00;19.65;;;16.80;99.90;;;;;;5099540;28;20092;-84
2022/07/01 07:51:44;;;;;;;23.02;18.73;;;16.80;99.90;;;;;;5049187;28;20125;-78
2022/07/01 07:54:10;;;;;;;25.27;18.35;;;17.00;99.90;;;;;;5065568;28;20040;-78
2022/07/01 07:56:35;;;;;;;23.35;18.10;;;17.20;99.90;;;;;;5064884;28;20043;-78
2022/07/01 07:59:01;;;;;;;19.60;17.02;;;17.30;99.90;;;;;;5049128;28;20078;-78
2022/07/01 08:01:27;;;;;;;18.75;16.40;;;17.30;99.90;;;;;;5066378;28;20036;-84
2022/07/01 08:03:53;;;;;;;22.33;17.48;;;17.40;99.90;;;;;;5083001;28;20074;-84
2022/07/01 08:06:19;;;;;;;23.33;17.90;;;17.40;99.90;;;;;;5083757;28;20036;-84
2022/07/01 08:08:45;;;;;;;20.05;16.90;;;17.30;99.90;;;;;;5083158;28;20047;-84
2022/07/01 08:11:11;;;;;;;21.38;17.85;;;17.20;99.90;;;;;;5083089;28;20039;-84
2022/07/01 08:13:36;;;;;;;23.77;17.92;;;17.20;99.90;;;;;;5082978;28;20381;-84
2022/07/01 08:16:03;;;;;;;23.40;18.20;;;17.20;99.90;;;;;;5099809;28;20126;-84
2022/07/01 08:18:30;;;;;;;21.58;17.77;;;17.20;99.90;;;;;;5066857;28;20042;-83
2022/07/01 08:20:55;;;;;;;24.65;17.20;;;17.30;99.90;;;;;;5100327;28;20047;-84
2022/07/01 08:23:22;;;;;;;21.83;18.67;;;17.40;99.90;;;;;;5099338;28;20426;-78
2022/07/01 08:25:49;;;;;;;22.30;18.42;;;17.40;99.90;;;;;;5082651;28;20042;-78
2022/07/01 08:28:15;;;;;;;18.83;15.65;;;17.50;99.90;;;;;;5065408;28;20089;-78
2022/07/01 08:30:41;;;;;;;21.95;16.17;;;17.60;99.90;;;;;;5099231;28;20043;-78
2022/07/01 08:33:07;;;;;;;19.35;15.38;;;17.70;99.90;;;;;;5098620;28;20096;-78
2022/07/01 08:35:32;;;;;;;18.52;14.65;;;17.80;99.90;;;;;;5081526;28;20048;-77
2022/07/01 08:37:58;;;;;;;18.17;15.35;;;18.00;99.90;;;;;;5098623;28;20040;-78
2022/07/01 08:40:30;;;;;;;20.52;14.55;;;18.20;99.90;;;;;;5081344;28;20043;-78
2022/07/01 08:43:01;;;;;;;17.63;13.10;;;18.40;99.90;;;;;;5099177;28;20063;-78
2022/07/01 08:45:28;;;;;;;14.73;11.75;;;18.40;99.90;;;;;;5081321;28;20050;-77
2022/07/01 08:48:00;;;;;;;13.60;10.60;;;18.30;99.90;;;;;;5098083;28;20120;-78
2022/07/01 08:50:38;;;;;;;15.57;10.20;;;18.30;99.90;;;;;;5098082;28;20079;-78
2022/07/01 08:53:06;;;;;;;16.52;11.30;;;18.30;99.90;;;;;;5098049;28;20399;-77
2022/07/01 08:55:32;;;;;;;13.52;9.52;;;18.30;99.90;;;;;;5082421;28;20050;-77
2022/07/01 08:57:58;;;;;;;15.85;8.77;;;18.30;99.90;;;;;;5065889;28;20062;-78
2022/07/01 09:00:31;;;;;;;13.27;8.68;;;18.40;99.90;;;;;;5082684;28;20076;-78
2022/07/01 09:03:03;;;;;;;11.82;9.02;;;18.60;99.90;;;;;;5098555;28;20036;-78
2022/07/01 09:05:31;;;;;;;12.05;9.48;;;18.70;99.90;;;;;;5097469;28;20046;-78
2022/07/01 09:08:00;;;;;;;10.85;8.57;;;18.80;99.90;;;;;;5081889;28;20122;-78
2022/07/01 09:10:27;;;;;;;9.20;7.50;;;18.90;99.90;;;;;;5081740;28;20035;-78
2022/07/01 09:12:53;;;;;;;8.52;7.10;;;19.10;99.90;;;;;;5098638;28;20040;-77
2022/07/01 09:15:24;;;;;;;9.30;7.70;;;19.40;99.90;;;;;;5098047;28;20042;-78
2022/07/01 09:17:50;;;;;;;10.20;8.05;;;19.60;99.90;;;;;;5081169;28;20031;-78
2022/07/01 09:20:30;;;;;;;14.68;9.63;;;19.90;99.90;;;;;;5098850;28;20032;-78
2022/07/01 09:23:07;;;;;;;10.55;7.68;;;19.90;99.90;;;;;;5081354;28;20050;-78
2022/07/01 09:25:34;;;;;;;13.00;7.85;;;20.00;99.90;;;;;;5065665;28;20487;-78
2022/07/01 09:28:04;;;;;;;12.88;7.82;;;20.10;99.90;;;;;;5098355;28;20036;-78
2022/07/01 09:30:30;;;;;;;12.52;6.93;;;20.20;99.90;;;;;;5081780;28;20047;-78
2022/07/01 09:33:12;;;;;;;11.80;7.32;;;20.50;99.90;;;;;;5081620;28;20042;-78
2022/07/01 09:35:39;;;;;;;11.65;6.72;;;20.70;99.90;;;;;;5097553;28;20058;-78
2022/07/01 09:38:07;;;;;;;13.13;7.22;;;20.90;99.90;;;;;;5081497;28;20057;-78
2022/07/01 09:40:58;;;;;;;12.05;6.88;;;21.00;99.90;;;;;;5081541;28;20038;-78
2022/07/01 09:43:30;;;;;;;8.30;6.28;;;21.10;99.90;;;;;;5083166;28;20039;-78
2022/07/01 09:46:10;;;;;;;11.55;5.63;;;21.00;99.90;;;;;;5097498;28;20051;-78
2022/07/01 09:48:35;;;;;;;12.38;5.15;;;20.90;99.90;;;;;;5097854;28;20050;-78
2022/07/01 09:51:03;;;;;;;6.45;4.97;;;20.80;99.90;;;;;;5098126;28;20043;-79
2022/07/01 09:53:28;;;;;;;8.48;4.47;;;20.70;99.90;;;;;;5080814;28;20044;-78
2022/07/01 09:55:54;;;;;;;8.50;4.57;;;20.70;99.90;;;;;;5063419;28;20042;-78
2022/07/01 09:58:20;;;;;;;5.72;4.15;;;20.70;99.90;;;;;;5078969;28;20042;-78
2022/07/01 10:00:46;;;;;;;8.63;4.10;;;20.70;99.90;;;;;;5079737;28;20122;-78
2022/07/01 10:03:13;;;;;;;7.68;4.18;;;20.80;99.90;;;;;;5096810;28;20399;-77
2022/07/01 10:05:47;;;;;;;9.10;4.50;;;20.80;99.90;;;;;;5081544;28;20062;-78
2022/07/01 10:08:40;;;;;;;6.05;3.78;;;20.70;99.90;;;;;;5097214;28;20040;-78
2022/07/01 10:11:37;;;;;;;5.35;2.85;;;20.60;99.90;;;;;;5096413;28;20483;-78
2022/07/01 10:14:04;;;;;;;4.78;2.60;;;20.50;99.90;;;;;;5096081;28;20123;-78
2022/07/01 10:16:32;;;;;;;5.57;2.58;;;20.70;99.90;;;;;;5096064;28;20042;-78
2022/07/01 10:18:58;;;;;;;5.45;2.58;;;20.80;99.90;;;;;;5097670;28;20351;-77
2022/07/01 10:21:31;;;;;;;7.13;2.78;;;21.00;99.90;;;;;;5097009;28;20101;-77
2022/07/01 10:24:13;;;;;;;6.53;2.72;;;21.00;99.90;;;;;;5079843;28;20047;-77
2022/07/01 10:26:40;;;;;;;5.72;2.00;;;21.00;99.90;;;;;;5079420;28;20043;-77
2022/07/01 10:29:36;;;;;;;4.93;2.10;;;21.00;99.90;;;;;;5079115;28;20039;-78
2022/07/01 10:32:08;;;;;;;3.10;2.00;;;21.00;99.90;;;;;;5096581;28;20043;-78
2022/07/01 10:34:41;;;;;;;7.70;2.10;;;20.90;99.90;;;;;;5095600;28;20498;-78
2022/07/01 10:37:11;;;;;;;5.03;1.80;;;20.90;99.90;;;;;;5079105;28;20035;-78
2022/07/01 10:40:06;;;;;;;7.80;1.73;;;20.70;99.90;;;;;;5095915;28;20118;-78
2022/07/01 10:42:37;;;;;;;4.50;1.40;;;20.50;99.90;;;;;;5076107;28;20054;-77
2022/07/01 10:45:10;;;;;;;4.80;1.98;;;20.50;99.90;;;;;;5062526;28;20042;-78
2022/07/01 10:47:38;;;;;;;4.30;1.50;;;20.50;99.90;;;;;;5078429;28;20044;-78
2022/07/01 10:50:16;;;;;;;7.75;1.83;;;20.50;99.90;;;;;;5079327;28;20043;-78
2022/07/01 10:53:01;;;;;;;4.80;1.30;;;20.50;99.90;;;;;;5096667;28;20492;-78
2022/07/01 10:55:43;;;;;;;6.10;1.52;;;20.60;99.50;;;;;;5095656;28;20046;-78
2022/07/01 10:58:09;;;;;;;4.90;2.25;;;20.50;98.80;;;;;;5079625;28;20096;-77
2022/07/01 11:00:36;;;;;;;3.05;1.65;;;20.50;99.90;;;;;;5079255;28;20475;-78
2022/07/01 11:03:06;;;;;;;3.90;1.33;;;20.40;99.90;;;;;;5079537;28;20380;-78
2022/07/01 11:05:33;;;;;;;4.47;1.20;;;20.30;99.90;;;;;;5096369;28;20083;-78
2022/07/01 11:07:59;;;;;;;3.72;1.55;;;20.20;99.90;;;;;;5079245;28;20048;-78
2022/07/01 11:10:25;;;;;;;3.88;1.50;;;20.20;99.90;;;;;;5062112;28;20096;-78
2022/07/01 11:12:51;;;;;;;3.20;1.50;;;20.10;99.90;;;;;;5045439;28;20054;-78
2022/07/01 11:15:17;;;;;;;5.20;1.63;;;20.00;99.90;;;;;;5096214;28;20034;-77
2022/07/01 11:17:46;;;;;;;4.82;1.90;;;20.00;99.90;;;;;;5078550;28;20050;-78
2022/07/01 11:20:12;;;;;;;5.70;1.70;;;20.10;99.90;;;;;;5078668;28;20429;-78
2022/07/01 11:22:37;;;;;;;5.05;1.80;;;20.20;99.90;;;;;;5095094;28;20027;-77
2022/07/01 11:25:09;;;;;;;4.72;2.08;;;20.20;99.90;;;;;;5095458;28;20096;-78
2022/07/01 11:27:35;;;;;;;5.05;1.60;;;20.30;99.90;;;;;;5095709;28;20039;-77
2022/07/01 11:30:06;;;;;;;4.55;1.17;;;20.50;99.90;;;;;;5078540;28;20127;-78
2022/07/01 11:32:37;;;;;;;3.38;1.30;;;20.50;99.90;;;;;;5095502;28;20048;-78
2022/07/01 11:39:21;;;;;;;3.80;1.25;;;20.50;99.90;;;;;;5078983;28;20060;-77
2022/07/01 11:41:02;;;;;;;4.28;1.52;;;20.50;99.90;;;;;;5094927;28;20487;-77
2022/07/01 11:43:36;;;;;;;4.45;1.85;;;20.50;99.90;;;;;;5095604;28;20047;-78
2022/07/01 11:46:03;;;;;;;4.00;1.27;;;20.60;99.90;;;;;;5095417;28;20039;-78
2022/07/01 11:48:42;;;;;;;4.20;1.60;;;20.80;99.90;;;;;;5095534;28;20043;-78
2022/07/01 11:51:16;;;;;;;2.47;1.17;;;21.10;99.90;;;;;;5062278;28;20039;-78
2022/07/01 11:53:44;;;;;;;6.10;1.42;;;21.10;99.90;;;;;;5095381;28;20492;-78
2022/07/01 11:56:11;;;;;;;4.13;1.40;;;21.10;99.90;;;;;;5078644;28;20064;-78
2022/07/01 11:58:48;;;;;;;5.35;1.92;;;21.10;99.90;;;;;;5095131;28;20383;-78
2022/07/01 12:01:29;;;;;;;2.63;1.10;;;21.20;99.90;;;;;;5096708;28;20038;-77
2022/07/01 12:04:00;;;;;;;4.57;1.48;;;21.20;99.50;;;;;;5077889;28;20040;-77
2022/07/01 12:06:27;;;;;;;5.07;1.50;;;21.10;99.90;;;;;;5078641;28;20060;-78
2022/07/01 12:08:54;;;;;;;4.35;1.40;;;20.90;99.90;;;;;;5080953;28;20043;-77
2022/07/01 12:11:21;;;;;;;3.38;1.30;;;20.80;99.90;;;;;;5081683;28;20348;-78
2022/07/01 12:13:48;;;;;;;2.95;1.40;;;20.60;99.90;;;;;;5082288;28;20028;-78
2022/07/01 12:16:14;;;;;;;7.68;1.45;;;20.60;99.90;;;;;;5065379;28;20032;-78
2022/07/01 12:18:56;;;;;;;3.63;1.00;;;20.60;99.90;;;;;;5082308;28;20035;-78
2022/07/01 12:21:23;;;;;;;3.78;1.00;;;20.60;99.90;;;;;;5098868;28;20097;-78
2022/07/01 12:24:11;;;;;;;3.08;1.13;;;20.60;99.90;;;;;;5065660;28;20453;-78
2022/07/01 12:26:49;;;;;;;4.93;1.33;;;20.70;99.90;;;;;;5099328;28;20043;-78
2022/07/01 12:29:16;;;;;;;3.13;1.33;;;20.60;99.90;;;;;;5081810;28;20054;-78
2022/07/01 12:31:42;;;;;;;2.70;1.20;;;20.60;99.90;;;;;;5081887;28;20036;-78
2022/07/01 12:34:08;;;;;;;3.65;1.15;;;20.50;99.90;;;;;;5081955;28;20052;-78
2022/07/01 12:36:34;;;;;;;3.60;1.20;;;20.40;99.90;;;;;;5082289;28;20104;-78
2022/07/01 12:39:04;;;;;;;5.05;1.42;;;20.30;99.90;;;;;;5049109;28;20039;-78
2022/07/01 12:41:35;;;;;;;6.80;1.15;;;20.20;99.90;;;;;;5098448;28;20043;-78
2022/07/01 12:44:19;;;;;;;2.00;0.80;;;20.10;99.90;;;;;;5081075;28;20071;-78
2022/07/01 12:46:44;;;;;;;3.38;1.35;;;20.00;99.80;;;;;;5082422;28;20075;-77
2022/07/01 12:49:18;;;;;;;6.50;1.33;;;20.00;99.90;;;;;;5081613;28;20469;-77
2022/07/01 12:51:44;;;;;;;5.63;1.30;;;19.90;99.90;;;;;;5083211;28;20047;-77
2022/07/01 12:54:31;;;;;;;3.28;1.25;;;20.00;99.90;;;;;;5082042;28;20403;-78
2022/07/01 12:56:57;;;;;;;4.65;1.33;;;20.30;99.90;;;;;;5099482;28;20080;-77